sensor_id;sensor_type;location;lat;lon;timestamp;temperature;humidity
57829;DHT22;43657;52.698;6.314;2022-09-30T00:01:26;8.90;99.90
57829;DHT22;43657;52.698;6.314;2022-09-30T00:03:56;8.90;99.90
57829;DHT22;43657;52.698;6.314;2022-09-30T00:06:26;8.90;99.90
57829;DHT22;43657;52.698;6.314;2022-09-30T00:08:52;8.90;99.90
57829;DHT22;43657;52.698;6.314;2022-09-30T00:11:21;8.80;99.90
57829;DHT22;43657;52.698;6.314;2022-09-30T00:13:48;8.90;99.90
57829;DHT22;43657;52.698;6.314;2022-09-30T00:16:15;8.90;99.90
57829;DHT22;43657;52.698;6.314;2022-09-30T00:18:42;8.80;99.90
57829;DHT22;43657;52.698;6.314;2022-09-30T00:21:09;8.80;99.90
57829;DHT22;43657;52.698;6.314;2022-09-30T00:23:35;8.80;99.90
57829;DHT22;43657;52.698;6.314;2022-09-30T00:26:11;8.80;99.90
57829;DHT22;43657;52.698;6.314;2022-09-30T00:28:38;8.80;99.90
57829;DHT22;43657;52.698;6.314;2022-09-30T00:31:07;8.80;99.90
57829;DHT22;43657;52.698;6.314;2022-09-30T00:33:34;8.70;99.90
57829;DHT22;43657;52.698;6.314;2022-09-30T00:36:01;8.70;99.90
57829;DHT22;43657;52.698;6.314;2022-09-30T00:38:27;8.70;99.90
57829;DHT22;43657;52.698;6.314;2022-09-30T00:40:53;8.60;99.90
57829;DHT22;43657;52.698;6.314;2022-09-30T00:46:15;8.50;99.90
57829;DHT22;43657;52.698;6.314;2022-09-30T00:48:42;8.50;99.90
57829;DHT22;43657;52.698;6.314;2022-09-30T00:51:08;8.40;99.90
57829;DHT22;43657;52.698;6.314;2022-09-30T00:56:19;8.30;99.90
57829;DHT22;43657;52.698;6.314;2022-09-30T00:59:07;8.20;99.90
57829;DHT22;43657;52.698;6.314;2022-09-30T01:01:39;8.10;99.90
57829;DHT22;43657;52.698;6.314;2022-09-30T01:04:13;8.10;99.90
57829;DHT22;43657;52.698;6.314;2022-09-30T01:06:40;8.00;99.90
57829;DHT22;43657;52.698;6.314;2022-09-30T01:09:06;8.00;99.90
57829;DHT22;43657;52.698;6.314;2022-09-30T01:11:32;7.90;99.90
57829;DHT22;43657;52.698;6.314;2022-09-30T01:14:11;7.90;99.90
57829;DHT22;43657;52.698;6.314;2022-09-30T01:22:22;7.70;99.90
57829;DHT22;43657;52.698;6.314;2022-09-30T01:38:29;7.60;99.90
57829;DHT22;43657;52.698;6.314;2022-09-30T01:41:08;7.60;99.90
57829;DHT22;43657;52.698;6.314;2022-09-30T01:43:56;7.50;99.90
57829;DHT22;43657;52.698;6.314;2022-09-30T01:46:50;7.50;99.90
57829;DHT22;43657;52.698;6.314;2022-09-30T01:49:47;7.40;99.90
57829;DHT22;43657;52.698;6.314;2022-09-30T01:52:29;7.40;99.90
57829;DHT22;43657;52.698;6.314;2022-09-30T01:54:59;7.30;99.90
57829;DHT22;43657;52.698;6.314;2022-09-30T02:00:12;7.20;99.90
57829;DHT22;43657;52.698;6.314;2022-09-30T02:02:57;7.20;99.90
57829;DHT22;43657;52.698;6.314;2022-09-30T02:08:06;7.10;99.90
57829;DHT22;43657;52.698;6.314;2022-09-30T02:10:43;7.00;99.90
57829;DHT22;43657;52.698;6.314;2022-09-30T02:15:40;7.00;99.90
57829;DHT22;43657;52.698;6.314;2022-09-30T02:18:16;6.90;99.90
57829;DHT22;43657;52.698;6.314;2022-09-30T02:20:48;6.90;99.90
57829;DHT22;43657;52.698;6.314;2022-09-30T02:23:22;6.90;99.90
57829;DHT22;43657;52.698;6.314;2022-09-30T02:25:58;6.80;99.90
57829;DHT22;43657;52.698;6.314;2022-09-30T02:28:26;6.80;99.90
57829;DHT22;43657;52.698;6.314;2022-09-30T02:30:56;6.80;99.90
57829;DHT22;43657;52.698;6.314;2022-09-30T02:33:44;6.70;99.90
57829;DHT22;43657;52.698;6.314;2022-09-30T02:36:27;6.70;99.90
57829;DHT22;43657;52.698;6.314;2022-09-30T02:39:12;6.70;99.90
57829;DHT22;43657;52.698;6.314;2022-09-30T02:41:45;6.70;99.90
57829;DHT22;43657;52.698;6.314;2022-09-30T02:44:12;6.70;99.90
57829;DHT22;43657;52.698;6.314;2022-09-30T02:52:20;6.60;99.90
57829;DHT22;43657;52.698;6.314;2022-09-30T02:55:01;6.50;99.90
57829;DHT22;43657;52.698;6.314;2022-09-30T02:57:52;6.50;99.90
57829;DHT22;43657;52.698;6.314;2022-09-30T03:00:19;6.50;99.90
57829;DHT22;43657;52.698;6.314;2022-09-30T03:02:44;6.40;99.90
57829;DHT22;43657;52.698;6.314;2022-09-30T03:05:10;6.40;99.90
57829;DHT22;43657;52.698;6.314;2022-09-30T03:07:37;6.40;99.90
57829;DHT22;43657;52.698;6.314;2022-09-30T03:10:16;6.40;99.90
57829;DHT22;43657;52.698;6.314;2022-09-30T03:27:08;6.30;99.90
57829;DHT22;43657;52.698;6.314;2022-09-30T03:29:40;6.20;99.90
57829;DHT22;43657;52.698;6.314;2022-09-30T03:35:36;6.30;99.90
57829;DHT22;43657;52.698;6.314;2022-09-30T03:41:01;6.20;99.90
57829;DHT22;43657;52.698;6.314;2022-09-30T03:43:41;6.20;99.90
57829;DHT22;43657;52.698;6.314;2022-09-30T03:46:51;6.20;99.90
57829;DHT22;43657;52.698;6.314;2022-09-30T03:49:12;6.10;99.90
57829;DHT22;43657;52.698;6.314;2022-09-30T03:51:40;6.10;99.90
57829;DHT22;43657;52.698;6.314;2022-09-30T03:54:10;6.00;99.90
57829;DHT22;43657;52.698;6.314;2022-09-30T03:56:36;6.00;99.90
57829;DHT22;43657;52.698;6.314;2022-09-30T03:59:21;6.00;99.90
57829;DHT22;43657;52.698;6.314;2022-09-30T04:01:47;5.90;99.90
57829;DHT22;43657;52.698;6.314;2022-09-30T04:04:13;5.90;99.90
57829;DHT22;43657;52.698;6.314;2022-09-30T04:06:38;5.80;99.90
57829;DHT22;43657;52.698;6.314;2022-09-30T04:09:04;5.80;99.90
57829;DHT22;43657;52.698;6.314;2022-09-30T04:11:29;5.70;99.90
57829;DHT22;43657;52.698;6.314;2022-09-30T04:13:55;5.70;99.90
57829;DHT22;43657;52.698;6.314;2022-09-30T04:16:21;5.70;99.90
57829;DHT22;43657;52.698;6.314;2022-09-30T04:18:46;5.60;99.90
57829;DHT22;43657;52.698;6.314;2022-09-30T04:21:13;5.60;99.90
57829;DHT22;43657;52.698;6.314;2022-09-30T04:23:40;5.50;99.90
57829;DHT22;43657;52.698;6.314;2022-09-30T04:26:07;5.50;99.90
57829;DHT22;43657;52.698;6.314;2022-09-30T04:28:34;5.50;99.90
57829;DHT22;43657;52.698;6.314;2022-09-30T04:31:02;5.50;99.90
57829;DHT22;43657;52.698;6.314;2022-09-30T04:33:28;5.50;99.90
57829;DHT22;43657;52.698;6.314;2022-09-30T04:35:55;5.40;99.90
57829;DHT22;43657;52.698;6.314;2022-09-30T04:38:21;5.40;99.90
57829;DHT22;43657;52.698;6.314;2022-09-30T04:40:52;5.40;99.90
57829;DHT22;43657;52.698;6.314;2022-09-30T04:43:20;5.30;99.90
57829;DHT22;43657;52.698;6.314;2022-09-30T04:45:48;5.30;99.90
57829;DHT22;43657;52.698;6.314;2022-09-30T04:48:15;5.20;99.90
57829;DHT22;43657;52.698;6.314;2022-09-30T04:50:41;5.20;99.90
57829;DHT22;43657;52.698;6.314;2022-09-30T04:53:07;5.20;99.90
57829;DHT22;43657;52.698;6.314;2022-09-30T04:55:33;5.20;99.90
57829;DHT22;43657;52.698;6.314;2022-09-30T04:57:59;5.20;99.90
57829;DHT22;43657;52.698;6.314;2022-09-30T05:00:24;5.10;99.90
57829;DHT22;43657;52.698;6.314;2022-09-30T05:02:50;5.10;99.90
57829;DHT22;43657;52.698;6.314;2022-09-30T05:05:16;5.10;99.90
57829;DHT22;43657;52.698;6.314;2022-09-30T05:07:42;5.10;99.90
57829;DHT22;43657;52.698;6.314;2022-09-30T05:10:09;5.00;99.90
57829;DHT22;43657;52.698;6.314;2022-09-30T05:12:39;5.00;99.90
57829;DHT22;43657;52.698;6.314;2022-09-30T05:15:08;5.00;99.90
57829;DHT22;43657;52.698;6.314;2022-09-30T05:17:34;4.90;99.90
57829;DHT22;43657;52.698;6.314;2022-09-30T05:20:00;4.90;99.90
57829;DHT22;43657;52.698;6.314;2022-09-30T05:22:26;4.90;99.90
57829;DHT22;43657;52.698;6.314;2022-09-30T05:24:52;4.90;99.90
57829;DHT22;43657;52.698;6.314;2022-09-30T05:27:20;4.90;99.90
57829;DHT22;43657;52.698;6.314;2022-09-30T05:29:46;4.80;99.90
57829;DHT22;43657;52.698;6.314;2022-09-30T05:32:12;4.80;99.90
57829;DHT22;43657;52.698;6.314;2022-09-30T05:34:37;4.80;99.90
57829;DHT22;43657;52.698;6.314;2022-09-30T05:37:04;4.80;99.90
57829;DHT22;43657;52.698;6.314;2022-09-30T05:39:30;4.90;99.90
57829;DHT22;43657;52.698;6.314;2022-09-30T05:41:56;4.90;99.90
57829;DHT22;43657;52.698;6.314;2022-09-30T05:44:22;4.90;99.90
57829;DHT22;43657;52.698;6.314;2022-09-30T05:46:47;4.90;99.90
57829;DHT22;43657;52.698;6.314;2022-09-30T05:49:13;4.90;99.90
57829;DHT22;43657;52.698;6.314;2022-09-30T05:51:39;4.90;99.90
57829;DHT22;43657;52.698;6.314;2022-09-30T05:54:06;5.00;99.90
57829;DHT22;43657;52.698;6.314;2022-09-30T05:56:31;5.00;99.90
57829;DHT22;43657;52.698;6.314;2022-09-30T05:58:59;4.90;99.90
57829;DHT22;43657;52.698;6.314;2022-09-30T06:01:25;4.90;99.90
57829;DHT22;43657;52.698;6.314;2022-09-30T06:03:50;4.90;99.90
57829;DHT22;43657;52.698;6.314;2022-09-30T06:06:16;4.90;99.90
57829;DHT22;43657;52.698;6.314;2022-09-30T06:08:43;4.90;99.90
57829;DHT22;43657;52.698;6.314;2022-09-30T06:11:14;4.90;99.90
57829;DHT22;43657;52.698;6.314;2022-09-30T06:13:41;5.00;99.90
57829;DHT22;43657;52.698;6.314;2022-09-30T06:16:08;5.00;99.90
57829;DHT22;43657;52.698;6.314;2022-09-30T06:18:34;5.10;99.90
57829;DHT22;43657;52.698;6.314;2022-09-30T06:21:02;5.10;99.90
57829;DHT22;43657;52.698;6.314;2022-09-30T06:23:29;5.20;99.90
57829;DHT22;43657;52.698;6.314;2022-09-30T06:25:57;5.20;99.90
57829;DHT22;43657;52.698;6.314;2022-09-30T06:28:23;5.20;99.90
57829;DHT22;43657;52.698;6.314;2022-09-30T06:30:49;5.40;99.90
57829;DHT22;43657;52.698;6.314;2022-09-30T06:33:20;5.40;99.90
57829;DHT22;43657;52.698;6.314;2022-09-30T06:35:46;5.50;99.90
57829;DHT22;43657;52.698;6.314;2022-09-30T06:38:13;5.50;99.90
57829;DHT22;43657;52.698;6.314;2022-09-30T06:40:41;5.60;99.90
57829;DHT22;43657;52.698;6.314;2022-09-30T06:43:07;5.60;99.90
57829;DHT22;43657;52.698;6.314;2022-09-30T06:45:34;5.70;99.90
57829;DHT22;43657;52.698;6.314;2022-09-30T06:48:02;5.70;99.90
57829;DHT22;43657;52.698;6.314;2022-09-30T06:50:29;5.70;99.90
57829;DHT22;43657;52.698;6.314;2022-09-30T06:53:03;5.80;99.90
57829;DHT22;43657;52.698;6.314;2022-09-30T06:55:31;5.80;99.90
57829;DHT22;43657;52.698;6.314;2022-09-30T06:57:57;5.80;99.90
57829;DHT22;43657;52.698;6.314;2022-09-30T07:00:24;5.90;99.90
57829;DHT22;43657;52.698;6.314;2022-09-30T07:02:49;5.90;99.90
57829;DHT22;43657;52.698;6.314;2022-09-30T07:05:16;6.00;99.90
57829;DHT22;43657;52.698;6.314;2022-09-30T07:07:42;6.00;99.90
57829;DHT22;43657;52.698;6.314;2022-09-30T07:10:09;6.00;99.90
57829;DHT22;43657;52.698;6.314;2022-09-30T07:12:35;6.10;99.90
57829;DHT22;43657;52.698;6.314;2022-09-30T07:15:02;6.10;99.90
57829;DHT22;43657;52.698;6.314;2022-09-30T07:17:28;6.20;99.90
57829;DHT22;43657;52.698;6.314;2022-09-30T07:19:54;6.20;99.90
57829;DHT22;43657;52.698;6.314;2022-09-30T07:22:20;6.30;99.90
57829;DHT22;43657;52.698;6.314;2022-09-30T07:24:54;6.30;99.90
57829;DHT22;43657;52.698;6.314;2022-09-30T07:27:20;6.40;99.90
57829;DHT22;43657;52.698;6.314;2022-09-30T07:29:46;6.50;99.90
57829;DHT22;43657;52.698;6.314;2022-09-30T07:32:12;6.60;99.90
57829;DHT22;43657;52.698;6.314;2022-09-30T07:34:39;6.70;99.90
57829;DHT22;43657;52.698;6.314;2022-09-30T07:37:09;6.80;99.90
57829;DHT22;43657;52.698;6.314;2022-09-30T07:39:36;6.90;99.90
57829;DHT22;43657;52.698;6.314;2022-09-30T07:42:02;7.00;99.90
57829;DHT22;43657;52.698;6.314;2022-09-30T07:44:29;7.10;99.90
57829;DHT22;43657;52.698;6.314;2022-09-30T07:46:55;7.20;99.90
57829;DHT22;43657;52.698;6.314;2022-09-30T07:49:21;7.30;99.90
57829;DHT22;43657;52.698;6.314;2022-09-30T07:51:52;7.40;99.90
57829;DHT22;43657;52.698;6.314;2022-09-30T07:54:20;7.50;99.90
57829;DHT22;43657;52.698;6.314;2022-09-30T07:56:50;7.60;99.90
57829;DHT22;43657;52.698;6.314;2022-09-30T07:59:17;7.70;99.90
57829;DHT22;43657;52.698;6.314;2022-09-30T08:01:43;7.80;99.90
57829;DHT22;43657;52.698;6.314;2022-09-30T08:04:10;7.90;99.90
57829;DHT22;43657;52.698;6.314;2022-09-30T08:06:42;8.00;99.90
57829;DHT22;43657;52.698;6.314;2022-09-30T08:09:09;8.10;99.90
57829;DHT22;43657;52.698;6.314;2022-09-30T08:11:36;8.20;99.90
57829;DHT22;43657;52.698;6.314;2022-09-30T08:14:03;8.30;99.90
57829;DHT22;43657;52.698;6.314;2022-09-30T08:16:29;8.40;99.90
57829;DHT22;43657;52.698;6.314;2022-09-30T08:19:00;8.50;99.90
57829;DHT22;43657;52.698;6.314;2022-09-30T08:21:26;8.60;99.90
57829;DHT22;43657;52.698;6.314;2022-09-30T08:23:52;8.70;99.90
57829;DHT22;43657;52.698;6.314;2022-09-30T08:26:18;8.80;99.90
57829;DHT22;43657;52.698;6.314;2022-09-30T08:28:44;8.90;99.90
57829;DHT22;43657;52.698;6.314;2022-09-30T08:31:14;9.00;99.90
57829;DHT22;43657;52.698;6.314;2022-09-30T08:33:40;9.10;99.90
57829;DHT22;43657;52.698;6.314;2022-09-30T08:36:09;9.20;99.90
57829;DHT22;43657;52.698;6.314;2022-09-30T08:38:35;9.30;99.90
57829;DHT22;43657;52.698;6.314;2022-09-30T08:44:05;9.60;99.90
57829;DHT22;43657;52.698;6.314;2022-09-30T08:47:20;9.70;99.90
57829;DHT22;43657;52.698;6.314;2022-09-30T08:49:34;9.80;99.90
57829;DHT22;43657;52.698;6.314;2022-09-30T08:52:11;10.00;99.90
57829;DHT22;43657;52.698;6.314;2022-09-30T08:54:43;10.10;99.90
57829;DHT22;43657;52.698;6.314;2022-09-30T08:57:11;10.30;99.90
57829;DHT22;43657;52.698;6.314;2022-09-30T08:59:42;10.60;99.90
57829;DHT22;43657;52.698;6.314;2022-09-30T09:02:17;10.90;99.90
57829;DHT22;43657;52.698;6.314;2022-09-30T09:04:44;11.30;99.90
57829;DHT22;43657;52.698;6.314;2022-09-30T09:07:41;11.60;99.90
57829;DHT22;43657;52.698;6.314;2022-09-30T09:20:58;12.70;99.90
57829;DHT22;43657;52.698;6.314;2022-09-30T09:23:25;12.70;99.90
57829;DHT22;43657;52.698;6.314;2022-09-30T09:25:52;12.80;99.90
57829;DHT22;43657;52.698;6.314;2022-09-30T09:30:57;12.80;99.90
57829;DHT22;43657;52.698;6.314;2022-09-30T09:33:32;12.90;99.90
57829;DHT22;43657;52.698;6.314;2022-09-30T09:42:23;13.20;99.90
57829;DHT22;43657;52.698;6.314;2022-09-30T09:45:04;13.20;99.90
57829;DHT22;43657;52.698;6.314;2022-09-30T09:47:33;13.20;99.90
57829;DHT22;43657;52.698;6.314;2022-09-30T09:50:00;13.40;99.90
57829;DHT22;43657;52.698;6.314;2022-09-30T09:55:06;13.60;99.90
57829;DHT22;43657;52.698;6.314;2022-09-30T09:57:36;13.70;99.90
57829;DHT22;43657;52.698;6.314;2022-09-30T10:00:08;13.80;99.90
57829;DHT22;43657;52.698;6.314;2022-09-30T10:03:05;14.30;99.90
57829;DHT22;43657;52.698;6.314;2022-09-30T10:05:37;14.90;99.90
57829;DHT22;43657;52.698;6.314;2022-09-30T10:08:18;15.50;99.90
57829;DHT22;43657;52.698;6.314;2022-09-30T10:10:52;15.90;99.90
57829;DHT22;43657;52.698;6.314;2022-09-30T10:13:45;16.00;99.90
57829;DHT22;43657;52.698;6.314;2022-09-30T10:16:31;15.90;99.90
57829;DHT22;43657;52.698;6.314;2022-09-30T10:18:57;15.70;99.90
57829;DHT22;43657;52.698;6.314;2022-09-30T10:21:25;15.70;99.90
57829;DHT22;43657;52.698;6.314;2022-09-30T10:23:51;15.70;99.90
57829;DHT22;43657;52.698;6.314;2022-09-30T10:26:19;15.70;99.90
57829;DHT22;43657;52.698;6.314;2022-09-30T10:28:57;15.80;99.90
57829;DHT22;43657;52.698;6.314;2022-09-30T10:31:43;15.80;99.90
57829;DHT22;43657;52.698;6.314;2022-09-30T10:36:58;16.00;99.90
57829;DHT22;43657;52.698;6.314;2022-09-30T10:39:28;16.10;99.90
57829;DHT22;43657;52.698;6.314;2022-09-30T10:47:13;16.10;99.90
57829;DHT22;43657;52.698;6.314;2022-09-30T10:52:22;16.60;99.90
57829;DHT22;43657;52.698;6.314;2022-09-30T10:54:55;16.90;99.90
57829;DHT22;43657;52.698;6.314;2022-09-30T10:59:54;17.10;99.90
57829;DHT22;43657;52.698;6.314;2022-09-30T11:02:42;17.20;99.90
57829;DHT22;43657;52.698;6.314;2022-09-30T11:05:22;17.30;99.90
57829;DHT22;43657;52.698;6.314;2022-09-30T11:08:18;17.50;99.90
57829;DHT22;43657;52.698;6.314;2022-09-30T11:21:59;17.20;99.90
57829;DHT22;43657;52.698;6.314;2022-09-30T11:24:54;17.50;99.90
57829;DHT22;43657;52.698;6.314;2022-09-30T11:27:55;17.80;99.90
57829;DHT22;43657;52.698;6.314;2022-09-30T11:30:20;18.00;99.90
57829;DHT22;43657;52.698;6.314;2022-09-30T11:33:13;18.00;99.90
57829;DHT22;43657;52.698;6.314;2022-09-30T11:35:45;18.10;99.90
57829;DHT22;43657;52.698;6.314;2022-09-30T11:38:45;18.00;99.90
57829;DHT22;43657;52.698;6.314;2022-09-30T11:44:37;17.40;99.90
57829;DHT22;43657;52.698;6.314;2022-09-30T11:47:16;17.20;99.90
57829;DHT22;43657;52.698;6.314;2022-09-30T11:53:08;17.00;99.90
57829;DHT22;43657;52.698;6.314;2022-09-30T11:58:42;17.30;99.90
57829;DHT22;43657;52.698;6.314;2022-09-30T12:01:18;17.60;99.90
57829;DHT22;43657;52.698;6.314;2022-09-30T12:03:57;17.60;99.90
57829;DHT22;43657;52.698;6.314;2022-09-30T12:06:33;17.60;99.90
57829;DHT22;43657;52.698;6.314;2022-09-30T12:09:16;17.60;99.90
57829;DHT22;43657;52.698;6.314;2022-09-30T12:12:15;17.40;99.90
57829;DHT22;43657;52.698;6.314;2022-09-30T12:14:41;17.30;99.90
57829;DHT22;43657;52.698;6.314;2022-09-30T12:19:47;17.60;99.90
57829;DHT22;43657;52.698;6.314;2022-09-30T12:24:52;17.90;99.90
57829;DHT22;43657;52.698;6.314;2022-09-30T12:27:34;17.80;99.90
57829;DHT22;43657;52.698;6.314;2022-09-30T12:30:16;17.70;99.90
57829;DHT22;43657;52.698;6.314;2022-09-30T12:35:42;17.40;99.90
57829;DHT22;43657;52.698;6.314;2022-09-30T12:48:58;17.50;99.90
57829;DHT22;43657;52.698;6.314;2022-09-30T12:51:33;17.60;99.90
57829;DHT22;43657;52.698;6.314;2022-09-30T12:54:17;17.80;99.90
57829;DHT22;43657;52.698;6.314;2022-09-30T12:56:45;17.90;99.90
57829;DHT22;43657;52.698;6.314;2022-09-30T12:59:13;17.90;99.90
57829;DHT22;43657;52.698;6.314;2022-09-30T13:01:40;18.10;99.90
57829;DHT22;43657;52.698;6.314;2022-09-30T13:11:40;17.20;99.90
57829;DHT22;43657;52.698;6.314;2022-09-30T13:17:20;17.00;99.90
57829;DHT22;43657;52.698;6.314;2022-09-30T13:19:52;17.10;99.90
57829;DHT22;43657;52.698;6.314;2022-09-30T13:27:42;16.60;99.90
57829;DHT22;43657;52.698;6.314;2022-09-30T13:35:33;16.20;99.90
57829;DHT22;43657;52.698;6.314;2022-09-30T13:40:47;16.20;99.90
57829;DHT22;43657;52.698;6.314;2022-09-30T13:43:35;16.10;99.90
57829;DHT22;43657;52.698;6.314;2022-09-30T13:46:21;16.20;99.90
57829;DHT22;43657;52.698;6.314;2022-09-30T13:48:54;16.40;99.90
57829;DHT22;43657;52.698;6.314;2022-09-30T13:51:21;16.50;99.90
57829;DHT22;43657;52.698;6.314;2022-09-30T13:53:51;16.60;99.30
57829;DHT22;43657;52.698;6.314;2022-09-30T13:56:25;16.60;99.90
57829;DHT22;43657;52.698;6.314;2022-09-30T13:59:13;16.60;99.90
57829;DHT22;43657;52.698;6.314;2022-09-30T14:02:41;16.50;99.20
57829;DHT22;43657;52.698;6.314;2022-09-30T14:08:02;16.30;99.90
57829;DHT22;43657;52.698;6.314;2022-09-30T14:22:01;15.90;99.90
57829;DHT22;43657;52.698;6.314;2022-09-30T14:24:37;15.80;99.50
57829;DHT22;43657;52.698;6.314;2022-09-30T14:27:36;15.80;99.90
57829;DHT22;43657;52.698;6.314;2022-09-30T14:32:56;15.70;99.90
57829;DHT22;43657;52.698;6.314;2022-09-30T14:35:25;15.60;99.90
57829;DHT22;43657;52.698;6.314;2022-09-30T14:37:53;15.60;99.90
57829;DHT22;43657;52.698;6.314;2022-09-30T14:40:26;15.50;99.90
57829;DHT22;43657;52.698;6.314;2022-09-30T14:42:53;15.50;99.90
57829;DHT22;43657;52.698;6.314;2022-09-30T14:45:28;15.40;99.90
57829;DHT22;43657;52.698;6.314;2022-09-30T14:47:59;15.40;99.90
57829;DHT22;43657;52.698;6.314;2022-09-30T14:50:35;15.40;99.90
57829;DHT22;43657;52.698;6.314;2022-09-30T14:53:02;15.40;99.90
57829;DHT22;43657;52.698;6.314;2022-09-30T14:55:32;15.40;99.90
57829;DHT22;43657;52.698;6.314;2022-09-30T14:58:37;15.50;99.90
57829;DHT22;43657;52.698;6.314;2022-09-30T15:01:12;15.40;99.90
57829;DHT22;43657;52.698;6.314;2022-09-30T15:03:41;15.40;99.90
57829;DHT22;43657;52.698;6.314;2022-09-30T15:06:37;15.40;99.90
57829;DHT22;43657;52.698;6.314;2022-09-30T15:09:31;15.40;99.90
57829;DHT22;43657;52.698;6.314;2022-09-30T15:12:14;15.30;99.90
57829;DHT22;43657;52.698;6.314;2022-09-30T15:14:56;15.30;99.90
57829;DHT22;43657;52.698;6.314;2022-09-30T15:17:24;15.20;99.90
57829;DHT22;43657;52.698;6.314;2022-09-30T15:19:54;15.10;99.90
57829;DHT22;43657;52.698;6.314;2022-09-30T15:22:22;15.00;99.90
57829;DHT22;43657;52.698;6.314;2022-09-30T15:24:49;14.90;99.90
57829;DHT22;43657;52.698;6.314;2022-09-30T15:29:58;14.70;99.90
57829;DHT22;43657;52.698;6.314;2022-09-30T15:32:31;14.60;99.90
57829;DHT22;43657;52.698;6.314;2022-09-30T15:35:16;14.60;99.90
57829;DHT22;43657;52.698;6.314;2022-09-30T15:37:45;14.60;99.90
57829;DHT22;43657;52.698;6.314;2022-09-30T15:40:15;14.60;99.90
57829;DHT22;43657;52.698;6.314;2022-09-30T15:43:02;14.50;99.90
57829;DHT22;43657;52.698;6.314;2022-09-30T15:48:01;14.50;99.90
57829;DHT22;43657;52.698;6.314;2022-09-30T15:53:15;14.50;99.90
57829;DHT22;43657;52.698;6.314;2022-09-30T15:55:46;14.50;99.90
57829;DHT22;43657;52.698;6.314;2022-09-30T16:03:32;14.60;99.90
57829;DHT22;43657;52.698;6.314;2022-09-30T16:06:09;14.60;99.90
57829;DHT22;43657;52.698;6.314;2022-09-30T16:08:43;14.60;99.90
57829;DHT22;43657;52.698;6.314;2022-09-30T16:11:30;14.70;99.90
57829;DHT22;43657;52.698;6.314;2022-09-30T16:13:57;14.60;99.90
57829;DHT22;43657;52.698;6.314;2022-09-30T16:16:26;14.60;99.90
57829;DHT22;43657;52.698;6.314;2022-09-30T16:18:54;14.60;99.90
57829;DHT22;43657;52.698;6.314;2022-09-30T16:21:36;14.50;99.90
57829;DHT22;43657;52.698;6.314;2022-09-30T16:26:47;14.40;99.90
57829;DHT22;43657;52.698;6.314;2022-09-30T16:29:13;14.30;99.90
57829;DHT22;43657;52.698;6.314;2022-09-30T16:31:40;14.30;99.90
57829;DHT22;43657;52.698;6.314;2022-09-30T16:34:07;14.20;99.90
57829;DHT22;43657;52.698;6.314;2022-09-30T16:36:38;14.20;99.90
57829;DHT22;43657;52.698;6.314;2022-09-30T16:39:03;14.10;99.90
57829;DHT22;43657;52.698;6.314;2022-09-30T16:41:29;14.10;99.90
57829;DHT22;43657;52.698;6.314;2022-09-30T16:43:54;14.00;99.90
57829;DHT22;43657;52.698;6.314;2022-09-30T16:46:20;13.90;99.90
57829;DHT22;43657;52.698;6.314;2022-09-30T16:48:45;13.90;99.90
57829;DHT22;43657;52.698;6.314;2022-09-30T16:51:15;13.70;99.90
57829;DHT22;43657;52.698;6.314;2022-09-30T16:53:41;13.70;99.90
57829;DHT22;43657;52.698;6.314;2022-09-30T16:56:18;13.70;99.90
57829;DHT22;43657;52.698;6.314;2022-09-30T16:58:45;13.60;99.90
57829;DHT22;43657;52.698;6.314;2022-09-30T17:01:22;13.50;99.90
57829;DHT22;43657;52.698;6.314;2022-09-30T17:03:48;13.40;99.90
57829;DHT22;43657;52.698;6.314;2022-09-30T17:06:14;13.40;99.90
57829;DHT22;43657;52.698;6.314;2022-09-30T17:08:41;13.30;99.90
57829;DHT22;43657;52.698;6.314;2022-09-30T17:11:07;13.30;99.90
57829;DHT22;43657;52.698;6.314;2022-09-30T17:13:34;13.10;99.90
57829;DHT22;43657;52.698;6.314;2022-09-30T17:16:00;13.20;99.90
57829;DHT22;43657;52.698;6.314;2022-09-30T17:18:26;13.10;99.90
57829;DHT22;43657;52.698;6.314;2022-09-30T17:20:52;13.00;99.90
57829;DHT22;43657;52.698;6.314;2022-09-30T17:23:22;13.00;99.90
57829;DHT22;43657;52.698;6.314;2022-09-30T17:25:49;12.90;99.90
57829;DHT22;43657;52.698;6.314;2022-09-30T17:28:15;12.80;99.90
57829;DHT22;43657;52.698;6.314;2022-09-30T17:30:43;12.80;99.90
57829;DHT22;43657;52.698;6.314;2022-09-30T17:33:09;12.70;99.90
57829;DHT22;43657;52.698;6.314;2022-09-30T17:35:38;12.70;99.90
57829;DHT22;43657;52.698;6.314;2022-09-30T17:38:09;12.70;99.90
57829;DHT22;43657;52.698;6.314;2022-09-30T17:40:36;12.60;99.90
57829;DHT22;43657;52.698;6.314;2022-09-30T17:43:20;12.50;99.90
57829;DHT22;43657;52.698;6.314;2022-09-30T17:45:47;12.50;99.90
57829;DHT22;43657;52.698;6.314;2022-09-30T17:48:14;12.40;99.90
57829;DHT22;43657;52.698;6.314;2022-09-30T17:50:46;12.40;99.90
57829;DHT22;43657;52.698;6.314;2022-09-30T17:53:13;12.40;99.90
57829;DHT22;43657;52.698;6.314;2022-09-30T17:55:41;12.30;99.90
57829;DHT22;43657;52.698;6.314;2022-09-30T17:58:08;12.20;99.90
57829;DHT22;43657;52.698;6.314;2022-09-30T18:00:35;12.20;99.90
57829;DHT22;43657;52.698;6.314;2022-09-30T18:03:02;12.20;99.90
57829;DHT22;43657;52.698;6.314;2022-09-30T18:05:28;12.20;99.90
57829;DHT22;43657;52.698;6.314;2022-09-30T18:07:54;12.20;99.90
57829;DHT22;43657;52.698;6.314;2022-09-30T18:10:21;12.10;99.90
57829;DHT22;43657;52.698;6.314;2022-09-30T18:12:51;12.10;99.90
57829;DHT22;43657;52.698;6.314;2022-09-30T18:15:17;12.00;99.90
57829;DHT22;43657;52.698;6.314;2022-09-30T18:17:45;12.00;99.90
57829;DHT22;43657;52.698;6.314;2022-09-30T18:20:11;11.90;99.90
57829;DHT22;43657;52.698;6.314;2022-09-30T18:22:37;11.90;99.90
57829;DHT22;43657;52.698;6.314;2022-09-30T18:25:03;11.90;99.90
57829;DHT22;43657;52.698;6.314;2022-09-30T18:27:51;11.80;99.90
57829;DHT22;43657;52.698;6.314;2022-09-30T18:30:17;11.80;99.90
57829;DHT22;43657;52.698;6.314;2022-09-30T18:32:49;11.80;99.90
57829;DHT22;43657;52.698;6.314;2022-09-30T18:35:15;11.70;99.90
57829;DHT22;43657;52.698;6.314;2022-09-30T18:37:42;11.70;99.90
57829;DHT22;43657;52.698;6.314;2022-09-30T18:40:12;11.70;99.90
57829;DHT22;43657;52.698;6.314;2022-09-30T18:42:38;11.60;99.90
57829;DHT22;43657;52.698;6.314;2022-09-30T18:45:04;11.60;99.90
57829;DHT22;43657;52.698;6.314;2022-09-30T18:47:30;11.60;99.90
57829;DHT22;43657;52.698;6.314;2022-09-30T18:49:57;11.50;99.90
57829;DHT22;43657;52.698;6.314;2022-09-30T18:52:23;11.50;99.90
57829;DHT22;43657;52.698;6.314;2022-09-30T18:54:48;11.50;99.90
57829;DHT22;43657;52.698;6.314;2022-09-30T18:57:15;11.50;99.90
57829;DHT22;43657;52.698;6.314;2022-09-30T18:59:41;11.40;99.90
57829;DHT22;43657;52.698;6.314;2022-09-30T19:02:10;11.40;99.90
57829;DHT22;43657;52.698;6.314;2022-09-30T19:04:37;11.40;99.90
57829;DHT22;43657;52.698;6.314;2022-09-30T19:07:03;11.30;99.90
57829;DHT22;43657;52.698;6.314;2022-09-30T19:09:29;11.40;99.90
57829;DHT22;43657;52.698;6.314;2022-09-30T19:11:54;11.40;99.90
57829;DHT22;43657;52.698;6.314;2022-09-30T19:14:20;11.40;99.90
57829;DHT22;43657;52.698;6.314;2022-09-30T19:16:46;11.40;99.90